West Days, Mississippi
Current Conditions -  °F | °C
As of 12:54 PM on Monday 20 Oct 2014 (Local Time) from KMEM Reporting Station
Broken Clouds Broken Clouds  
Wind Chill: 69°   Ceiling: 13000
Heat Index: 69°   Visibility: 10mi
Dew Point: 49°   Wind: 8mph
Humidity: 49%   Direction: 250°WSW
Pressure: 30.06"   Gusts: NA
Location:  34.9155°N, 90.1878°W
Report Text: KMEM 201754Z 25007KT 10SM BKN130 21/09 A3006 RMK AO2 SLP177 T02060094 10211 20094 58018
Loading
Personal Weather Stations






























Interactive Weather Map
Tropical Storm Tracking
New forecast layout! Learn more

10-Day Weather Forecast

Advertisements
Track Severe Weather on mobile